Satumimaru — JD3925 — position and weather

sailwx.info

Track history (hours):
 
Tides and Currents Weather Stations Pressure Air Temp Water Temp Dewpoint Dewpoint Depression Visibility Wind Speed Wind Dir Waves Ship Positions

Satumimaru

Last reported at 2017-Oct-16 09:22 UTC. Time now 2017-Oct-22 13:26 UTC.
Position N 34°55' E 139°24'.

Length 82 m; draft 5.6 m.

Type: Cargo ship. MMSI: 431007046.

Date/timePositionNaut miles runAvg speedWind from/ knotsBaromVisibWave heightAir tempDewpointWater temp
2017-Oct-16 09:22N 34°55' E 139°24'4 9.5
2017-Oct-16 09:00N 34°57' E 139°27'510.3
2017-Oct-16 08:30N 35°00' E 139°32'511.1
2017-Oct-16 08:00N 35°04' E 139°37'612.1
2017-Oct-16 07:30N 35°08' E 139°43'612.2
2017-Oct-16 07:00N 35°14' E 139°46'611.9
2017-Oct-16 06:30N 35°19' E 139°43'611.9
2017-Oct-16 06:00N 35°25' E 139°42'4 8.5
2017-Oct-16 05:30N 35°29' E 139°40'0 0.0
2017-Oct-16 04:57N 35°29' E 139°40'0 0.0
2017-Oct-16 04:30N 35°29' E 139°40'0 0.0
2017-Oct-16 04:00N 35°29' E 139°40'0 0.0
2017-Oct-16 03:30N 35°29' E 139°40'0 0.0
2017-Oct-16 03:00N 35°29' E 139°40'0 0.0
2017-Oct-16 02:30N 35°29' E 139°40'0 0.0
2017-Oct-16 02:00N 35°29' E 139°40'0 0.0
2017-Oct-16 01:30N 35°29' E 139°40'0 0.0
2017-Oct-16 01:00N 35°29' E 139°40'0 0.0
2017-Oct-16 00:30N 35°29' E 139°40'0 0.0
2017-Oct-16 00:00N 35°29' E 139°40'0 0.0
2017-Oct-15 23:27N 35°29' E 139°40'0 0.1
2017-Oct-15 23:00N 35°29' E 139°40'2 5.0
2017-Oct-15 22:30N 35°27' E 139°42'4 7.2
2017-Oct-15 21:59N 35°24' E 139°45'0 0.0
2017-Oct-15 21:29N 35°24' E 139°45'0 0.0
2017-Oct-15 20:59N 35°24' E 139°45'0 0.0
2017-Oct-15 20:29N 35°24' E 139°45'0 0.0
2017-Oct-15 19:59N 35°24' E 139°45'0 0.0
2017-Oct-15 19:23N 35°24' E 139°45'0 0.0
2017-Oct-15 18:59N 35°24' E 139°45'0 0.1
2017-Oct-15 18:29N 35°24' E 139°45'0 0.1
2017-Oct-15 17:59N 35°24' E 139°45'0 0.0
2017-Oct-15 17:26N 35°24' E 139°45'0 0.0
2017-Oct-15 16:59N 35°24' E 139°45'0 0.0
2017-Oct-15 16:29N 35°24' E 139°45'0 0.0
2017-Oct-15 15:59N 35°24' E 139°45'0 0.0
2017-Oct-15 15:29N 35°24' E 139°45'0 0.0
2017-Oct-15 14:59N 35°24' E 139°45'0 0.0
2017-Oct-15 13:59N 35°24' E 139°45'0 0.0
2017-Oct-15 13:29N 35°24' E 139°45'0 0.0
2017-Oct-15 12:59N 35°24' E 139°45'0 0.0
2017-Oct-15 12:29N 35°24' E 139°45'0 0.0
2017-Oct-15 11:59N 35°24' E 139°45'0 0.0
2017-Oct-15 11:29N 35°24' E 139°45'0 0.0
2017-Oct-15 10:59N 35°24' E 139°45'0 0.0
2017-Oct-15 10:29N 35°24' E 139°45'0 0.0
2017-Oct-15 09:59N 35°24' E 139°45'0 0.0
2017-Oct-15 09:29N 35°24' E 139°45'0 0.0
2017-Oct-15 08:59N 35°24' E 139°45'0 0.0
2017-Oct-15 08:29N 35°24' E 139°45'0 0.0
2017-Oct-15 07:59N 35°24' E 139°45'0 0.0
2017-Oct-15 07:29N 35°24' E 139°45'0 0.0
2017-Oct-15 06:59N 35°24' E 139°45'0 0.0
2017-Oct-15 06:29N 35°24' E 139°45'0 0.0
2017-Oct-15 05:59N 35°24' E 139°45'0 0.0
2017-Oct-15 05:29N 35°24' E 139°45'0 0.0
2017-Oct-15 04:59N 35°24' E 139°45'0 0.0
2017-Oct-15 04:29N 35°24' E 139°45'0 0.0
2017-Oct-15 03:59N 35°24' E 139°45'0 0.0
2017-Oct-15 03:29N 35°24' E 139°45'0 0.0
2017-Oct-15 02:59N 35°24' E 139°45'0 0.0
2017-Oct-15 02:29N 35°24' E 139°45'0 0.0
2017-Oct-15 01:59N 35°24' E 139°45'0 0.0
2017-Oct-15 01:29N 35°24' E 139°45'0 0.0
2017-Oct-15 00:59N 35°24' E 139°45'3 6.1
2017-Oct-15 00:30N 35°24' E 139°49'4 0.2
2017-Oct-14 05:47N 35°22' E 139°53'310.0
2017-Oct-14 05:30N 35°23' E 139°50'5 9.5
2017-Oct-14 05:00N 35°21' E 139°45'5 9.3
2017-Oct-14 04:30N 35°16' E 139°46'510.1
2017-Oct-14 04:00N 35°11' E 139°46'510.3
2017-Oct-14 03:30N 35°07' E 139°42'611.1
2017-Oct-14 03:00N 35°04' E 139°37'611.6
2017-Oct-14 02:30N 34°60' E 139°32'  
2017-Oct-07 23:11N 34°51' E 139°48'411.2
2017-Oct-07 22:48N 34°51' E 139°43'411.7
2017-Oct-07 22:29N 34°51' E 139°39'  
Track history (hours):
 
Tides and Currents Weather Stations Pressure Air Temp Water Temp Dewpoint Dewpoint Depression Visibility Wind Speed Wind Dir Waves Ship Positions

Satumimaru

Last reported at 2017-Oct-16 09:22 UTC. Time now 2017-Oct-22 13:26 UTC.
Position N 34°55' E 139°24'.

Length 82 m; draft 5.6 m.

Type: Cargo ship. MMSI: 431007046.

Date/timePositionNaut miles runAvg speedWind from/ knotsBaromVisibWave heightAir tempDewpointWater temp
2017-Oct-16 09:22N 34°55' E 139°24'4 9.5
2017-Oct-16 09:00N 34°57' E 139°27'510.3
2017-Oct-16 08:30N 35°00' E 139°32'511.1
2017-Oct-16 08:00N 35°04' E 139°37'612.1
2017-Oct-16 07:30N 35°08' E 139°43'612.2
2017-Oct-16 07:00N 35°14' E 139°46'611.9
2017-Oct-16 06:30N 35°19' E 139°43'611.9
2017-Oct-16 06:00N 35°25' E 139°42'4 8.5
2017-Oct-16 05:30N 35°29' E 139°40'0 0.0
2017-Oct-16 04:57N 35°29' E 139°40'0 0.0
2017-Oct-16 04:30N 35°29' E 139°40'0 0.0
2017-Oct-16 04:00N 35°29' E 139°40'0 0.0
2017-Oct-16 03:30N 35°29' E 139°40'0 0.0
2017-Oct-16 03:00N 35°29' E 139°40'0 0.0
2017-Oct-16 02:30N 35°29' E 139°40'0 0.0
2017-Oct-16 02:00N 35°29' E 139°40'0 0.0
2017-Oct-16 01:30N 35°29' E 139°40'0 0.0
2017-Oct-16 01:00N 35°29' E 139°40'0 0.0
2017-Oct-16 00:30N 35°29' E 139°40'0 0.0
2017-Oct-16 00:00N 35°29' E 139°40'0 0.0
2017-Oct-15 23:27N 35°29' E 139°40'0 0.1
2017-Oct-15 23:00N 35°29' E 139°40'2 5.0
2017-Oct-15 22:30N 35°27' E 139°42'4 7.2
2017-Oct-15 21:59N 35°24' E 139°45'0 0.0
2017-Oct-15 21:29N 35°24' E 139°45'0 0.0
2017-Oct-15 20:59N 35°24' E 139°45'0 0.0
2017-Oct-15 20:29N 35°24' E 139°45'0 0.0
2017-Oct-15 19:59N 35°24' E 139°45'0 0.0
2017-Oct-15 19:23N 35°24' E 139°45'0 0.0
2017-Oct-15 18:59N 35°24' E 139°45'0 0.1
2017-Oct-15 18:29N 35°24' E 139°45'0 0.1
2017-Oct-15 17:59N 35°24' E 139°45'0 0.0
2017-Oct-15 17:26N 35°24' E 139°45'0 0.0
2017-Oct-15 16:59N 35°24' E 139°45'0 0.0
2017-Oct-15 16:29N 35°24' E 139°45'0 0.0
2017-Oct-15 15:59N 35°24' E 139°45'0 0.0
2017-Oct-15 15:29N 35°24' E 139°45'0 0.0
2017-Oct-15 14:59N 35°24' E 139°45'0 0.0
2017-Oct-15 13:59N 35°24' E 139°45'0 0.0
2017-Oct-15 13:29N 35°24' E 139°45'0 0.0
2017-Oct-15 12:59N 35°24' E 139°45'0 0.0
2017-Oct-15 12:29N 35°24' E 139°45'0 0.0
2017-Oct-15 11:59N 35°24' E 139°45'0 0.0
2017-Oct-15 11:29N 35°24' E 139°45'0 0.0
2017-Oct-15 10:59N 35°24' E 139°45'0 0.0
2017-Oct-15 10:29N 35°24' E 139°45'0 0.0
2017-Oct-15 09:59N 35°24' E 139°45'0 0.0
2017-Oct-15 09:29N 35°24' E 139°45'0 0.0
2017-Oct-15 08:59N 35°24' E 139°45'0 0.0
2017-Oct-15 08:29N 35°24' E 139°45'0 0.0
2017-Oct-15 07:59N 35°24' E 139°45'0 0.0
2017-Oct-15 07:29N 35°24' E 139°45'0 0.0
2017-Oct-15 06:59N 35°24' E 139°45'0 0.0
2017-Oct-15 06:29N 35°24' E 139°45'0 0.0
2017-Oct-15 05:59N 35°24' E 139°45'0 0.0
2017-Oct-15 05:29N 35°24' E 139°45'0 0.0
2017-Oct-15 04:59N 35°24' E 139°45'0 0.0
2017-Oct-15 04:29N 35°24' E 139°45'0 0.0
2017-Oct-15 03:59N 35°24' E 139°45'0 0.0
2017-Oct-15 03:29N 35°24' E 139°45'0 0.0
2017-Oct-15 02:59N 35°24' E 139°45'0 0.0
2017-Oct-15 02:29N 35°24' E 139°45'0 0.0
2017-Oct-15 01:59N 35°24' E 139°45'0 0.0
2017-Oct-15 01:29N 35°24' E 139°45'0 0.0
2017-Oct-15 00:59N 35°24' E 139°45'3 6.1
2017-Oct-15 00:30N 35°24' E 139°49'4 0.2
2017-Oct-14 05:47N 35°22' E 139°53'310.0
2017-Oct-14 05:30N 35°23' E 139°50'5 9.5
2017-Oct-14 05:00N 35°21' E 139°45'5 9.3
2017-Oct-14 04:30N 35°16' E 139°46'510.1
2017-Oct-14 04:00N 35°11' E 139°46'510.3
2017-Oct-14 03:30N 35°07' E 139°42'611.1
2017-Oct-14 03:00N 35°04' E 139°37'611.6
2017-Oct-14 02:30N 34°60' E 139°32'  
2017-Oct-07 23:11N 34°51' E 139°48'411.2
2017-Oct-07 22:48N 34°51' E 139°43'411.7
2017-Oct-07 22:29N 34°51' E 139°39'  

Dump ship's entire track history